Time;durP1;ratioP1;P1;durP2;ratioP2;P2;SDS_P1;SDS_P2;PMS_P1;PMS_P2;Temp;Humidity;BMP_temperature;BMP_pressure;BME280_temperature;BME280_humidity;BME280_pressure;Samples;Min_cycle;Max_cycle;Signal;HPM_P1;HPM_P2
2023/05/23 00:00:43;;;;;;;33.40;22.85;;;29.80;93.00;;;;;;1547635;89;21628;-82
2023/05/23 00:03:30;;;;;;;27.73;23.07;;;29.80;93.10;;;;;;1931340;73;22166;-84
2023/05/23 00:06:07;;;;;;;29.45;23.27;;;29.80;93.20;;;;;;1886335;75;21347;-83
2023/05/23 00:11:53;;;;;;;36.35;25.62;;;29.70;93.20;;;;;;1847794;75;21076;-84
2023/05/23 00:14:34;;;;;;;27.95;24.63;;;29.80;93.20;;;;;;1895325;75;21084;-84
2023/05/23 00:17:11;;;;;;;31.07;22.87;;;29.70;93.20;;;;;;1888919;75;21193;-83
2023/05/23 00:19:44;;;;;;;29.42;24.05;;;29.80;93.00;;;;;;1892040;75;21251;-84
2023/05/23 00:22:23;;;;;;;29.87;22.37;;;29.80;92.90;;;;;;1896025;74;21155;-84
2023/05/23 00:25:00;;;;;;;28.50;24.05;;;29.80;92.70;;;;;;1900393;75;21112;-83
2023/05/23 00:27:33;;;;;;;30.20;25.37;;;29.90;92.70;;;;;;1902778;74;21194;-84
2023/05/23 00:30:08;;;;;;;28.77;23.77;;;29.90;92.90;;;;;;1904231;75;21766;-84
2023/05/23 00:32:40;;;;;;;29.55;23.02;;;29.90;92.70;;;;;;1902566;75;21124;-82
2023/05/23 00:35:11;;;;;;;31.25;23.40;;;29.90;92.80;;;;;;1900583;74;21198;-83
2023/05/23 00:37:42;;;;;;;30.77;22.60;;;29.90;92.70;;;;;;1905303;74;21591;-84
2023/05/23 00:40:15;;;;;;;29.45;21.97;;;29.90;92.70;;;;;;1891262;74;21221;-87
2023/05/23 00:42:47;;;;;;;29.00;22.37;;;29.90;92.70;;;;;;1895772;75;21548;-86
2023/05/23 00:45:19;;;;;;;31.65;23.07;;;29.90;92.20;;;;;;1901490;75;21199;-83
2023/05/23 00:47:51;;;;;;;28.92;22.65;;;29.90;92.70;;;;;;1896420;73;21122;-89
2023/05/23 00:50:23;;;;;;;29.82;23.77;;;30.00;93.00;;;;;;1898229;75;21233;-87
2023/05/23 00:52:54;;;;;;;30.00;23.25;;;29.90;93.10;;;;;;1898090;75;21097;-84
2023/05/23 00:55:26;;;;;;;35.35;24.75;;;29.90;93.20;;;;;;1899613;75;21166;-86
2023/05/23 00:58:00;;;;;;;30.72;21.70;;;29.90;93.30;;;;;;1896645;75;21681;-82
2023/05/23 01:00:33;;;;;;;137.92;32.17;;;30.00;93.30;;;;;;1896549;75;22615;-86
2023/05/23 01:03:04;;;;;;;39.60;25.60;;;30.10;93.30;;;;;;1888017;74;21667;-85
2023/05/23 01:05:36;;;;;;;67.67;28.20;;;30.10;93.20;;;;;;1896583;75;21167;-83
2023/05/23 01:08:07;;;;;;;39.95;22.95;;;30.20;93.00;;;;;;1885507;75;21611;-81
2023/05/23 01:10:39;;;;;;;33.23;23.57;;;30.20;92.80;;;;;;1890792;75;21493;-81
2023/05/23 01:13:42;;;;;;;36.25;23.65;;;30.30;92.60;;;;;;1887735;75;21226;-86
2023/05/23 01:16:22;;;;;;;94.17;26.97;;;30.30;92.60;;;;;;1883331;75;21136;-84
2023/05/23 01:19:12;;;;;;;37.45;20.85;;;30.30;92.60;;;;;;1886762;74;21814;-84
2023/05/23 01:21:45;;;;;;;107.92;27.35;;;30.40;92.10;;;;;;1874159;75;21069;-84
2023/05/23 01:24:35;;;;;;;72.67;22.20;;;30.50;92.10;;;;;;1879173;75;21184;-83
2023/05/23 01:27:25;;;;;;;31.45;20.02;;;30.60;92.00;;;;;;1887357;75;21227;-84
2023/05/23 01:29:58;;;;;;;50.80;20.95;;;30.70;91.80;;;;;;1896127;75;21168;-87
2023/05/23 01:32:30;;;;;;;47.48;21.90;;;30.80;91.20;;;;;;1884115;75;21262;-86
2023/05/23 01:35:02;;;;;;;31.77;21.15;;;30.90;90.90;;;;;;1889198;75;21105;-84
2023/05/23 01:37:33;;;;;;;36.58;20.88;;;30.90;91.10;;;;;;1883063;75;21135;-87
2023/05/23 01:40:05;;;;;;;28.90;21.62;;;30.90;90.80;;;;;;1884381;75;21145;-87
2023/05/23 01:42:47;;;;;;;;;;;;;;;;;;;;;
2023/05/23 01:45:26;;;;;;;28.83;22.20;;;31.00;91.00;;;;;;1887950;75;21253;-86
2023/05/23 01:47:57;;;;;;;28.32;20.15;;;31.00;90.70;;;;;;1887183;75;21550;-87
2023/05/23 01:50:51;;;;;;;32.55;22.27;;;31.00;90.80;;;;;;1886269;75;21231;-83
2023/05/23 01:53:34;;;;;;;36.25;24.57;;;31.10;90.60;;;;;;1883396;75;21112;-83
2023/05/23 01:56:06;;;;;;;31.82;23.12;;;31.10;90.80;;;;;;1881746;75;21132;-83
2023/05/23 01:59:28;;;;;;;;;;;;;;;;;;;;;
2023/05/23 02:01:42;;;;;;;36.68;22.67;;;31.30;90.60;;;;;;1874081;74;21137;-83
2023/05/23 02:04:46;;;;;;;28.38;19.37;;;31.40;90.30;;;;;;1818585;77;21278;-81
2023/05/23 02:07:33;;;;;;;25.67;21.83;;;31.50;90.30;;;;;;1882674;73;21183;-85
2023/05/23 02:10:11;;;;;;;25.17;21.87;;;31.60;89.70;;;;;;1900303;74;21159;-83
2023/05/23 02:12:53;;;;;;;32.67;23.55;;;31.60;89.90;;;;;;1901383;73;21190;-80
2023/05/23 02:15:33;;;;;;;36.00;25.60;;;31.70;90.20;;;;;;1900048;75;21541;-82
2023/05/23 02:21:28;;;;;;;35.48;21.95;;;31.80;90.30;;;;;;1888962;75;21620;-82
2023/05/23 02:24:00;;;;;;;24.82;21.60;;;31.80;89.60;;;;;;1889963;75;21116;-81
2023/05/23 02:27:06;;;;;;;;;;;;;;;;;;;;;
2023/05/23 02:29:32;;;;;;;28.38;22.73;;;31.90;88.10;;;;;;1752543;76;21155;-82
2023/05/23 02:32:04;;;;;;;38.30;21.65;;;31.90;87.90;;;;;;1904060;73;21159;-77
2023/05/23 02:34:37;;;;;;;27.02;20.57;;;32.00;88.10;;;;;;1911651;74;21516;-83
2023/05/23 02:37:08;;;;;;;25.27;20.27;;;32.00;86.70;;;;;;1907422;74;21119;-83
2023/05/23 02:39:58;;;;;;;25.62;20.92;;;32.20;86.90;;;;;;1912709;73;21113;-82
2023/05/23 02:42:35;;;;;;;37.67;21.00;;;32.20;86.00;;;;;;1891037;73;21127;-80
2023/05/23 02:45:08;;;;;;;27.25;21.60;;;32.30;85.40;;;;;;1906176;74;21615;-78
2023/05/23 02:54:19;;;;;;;30.85;22.05;;;32.40;85.40;;;;;;1676617;84;21781;-77
2023/05/23 02:59:54;;;;;;;28.40;21.00;;;32.60;83.50;;;;;;1894802;74;21540;-81
2023/05/23 03:02:27;;;;;;;27.00;19.05;;;32.60;83.80;;;;;;1897164;75;21088;-79
2023/05/23 03:04:58;;;;;;;22.60;18.95;;;32.70;83.20;;;;;;1900755;75;21096;-81
2023/05/23 03:10:18;;;;;;;24.80;20.90;;;32.80;82.60;;;;;;1854883;74;21094;-82
2023/05/23 03:13:28;;;;;;;24.12;20.20;;;32.90;82.20;;;;;;1895615;74;21182;-79
2023/05/23 03:17:18;;;;;;;;;;;;;;;;;;;;;
2023/05/23 03:22:55;;;;;;;24.50;19.50;;;33.40;81.50;;;;;;1734783;77;21236;-78
2023/05/23 03:25:31;;;;;;;31.87;20.75;;;33.60;80.90;;;;;;1836129;77;21391;-79
2023/05/23 03:28:35;;;;;;;28.95;20.62;;;33.70;80.70;;;;;;1880611;74;21160;-83
2023/05/23 03:37:41;;;;;;;26.87;20.30;;;34.00;79.50;;;;;;1708514;81;21205;-82
2023/05/23 03:40:13;;;;;;;24.65;19.48;;;34.00;79.00;;;;;;1751380;80;21245;-79
2023/05/23 03:42:53;;;;;;;25.37;18.90;;;34.00;79.60;;;;;;1794420;79;21285;-79
2023/05/23 03:45:21;;;;;;;32.48;19.80;;;34.00;78.80;;;;;;1776833;79;21256;-80
2023/05/23 03:48:08;;;;;;;27.15;19.70;;;34.10;79.20;;;;;;1793446;78;21592;-80
2023/05/23 03:53:44;;;;;;;24.32;17.25;;;34.30;77.00;;;;;;1731319;78;21667;-79
2023/05/23 03:56:16;;;;;;;19.87;16.05;;;34.40;77.70;;;;;;1791997;78;21612;-79
2023/05/23 04:09:07;;;;;;;19.45;15.03;;;34.70;75.10;;;;;;1771054;77;21700;-79
2023/05/23 04:12:17;;;;;;;;;;;;;;;;;;;;;
2023/05/23 04:15:05;;;;;;;22.22;15.35;;;34.70;74.40;;;;;;1797309;78;21728;-79
2023/05/23 04:17:58;;;;;;;17.77;14.07;;;34.70;74.80;;;;;;1750556;80;21208;-79
2023/05/23 04:20:36;;;;;;;20.25;14.10;;;34.70;73.40;;;;;;1747904;78;21270;-78
2023/05/23 04:26:25;;;;;;;20.27;14.93;;;34.60;73.80;;;;;;1797681;75;21186;-79
2023/05/23 04:29:13;;;;;;;17.73;15.68;;;34.70;74.50;;;;;;1814581;77;21164;-79
2023/05/23 04:32:36;;;;;;;24.02;14.50;;;34.80;73.60;;;;;;1772999;77;21247;-79
2023/05/23 04:35:15;;;;;;;19.50;15.18;;;35.00;73.80;;;;;;1746387;80;21173;-79
2023/05/23 04:37:46;;;;;;;18.20;14.50;;;35.20;72.50;;;;;;1777320;80;21704;-78
2023/05/23 04:40:24;;;;;;;17.77;14.13;;;35.30;71.80;;;;;;1824233;77;21572;-78
2023/05/23 04:42:56;;;;;;;20.43;15.08;;;35.30;72.20;;;;;;1895921;75;21581;-79
2023/05/23 04:45:45;;;;;;;22.58;15.80;;;35.20;72.80;;;;;;1895286;74;21241;-77
2023/05/23 04:48:16;;;;;;;24.27;15.60;;;35.20;73.20;;;;;;1875680;75;21215;-83
2023/05/23 04:51:10;;;;;;;16.90;14.80;;;35.30;71.50;;;;;;1875240;76;21265;-81
2023/05/23 04:53:39;;;;;;;19.17;14.80;;;35.30;70.90;;;;;;1871072;75;21075;-79
2023/05/23 04:56:11;;;;;;;19.95;14.50;;;35.30;72.00;;;;;;1889742;75;21128;-79
2023/05/23 04:58:53;;;;;;;31.68;16.30;;;35.30;72.30;;;;;;1823935;77;21122;-87
2023/05/23 05:01:24;;;;;;;22.02;14.00;;;35.50;72.40;;;;;;1884055;74;21676;-87
2023/05/23 05:03:56;;;;;;;21.23;14.55;;;35.60;71.80;;;;;;1897406;74;21153;-87
2023/05/23 05:06:33;;;;;;;21.30;15.15;;;35.70;69.70;;;;;;1892745;74;21438;-87
2023/05/23 05:09:05;;;;;;;35.48;16.12;;;35.60;70.00;;;;;;1893820;74;21554;-85
2023/05/23 05:11:48;;;;;;;20.70;14.10;;;35.70;69.70;;;;;;1849741;76;22057;-88
2023/05/23 05:14:39;;;;;;;16.15;14.07;;;35.70;69.50;;;;;;1874192;75;21155;-89
2023/05/23 05:17:10;;;;;;;19.55;15.18;;;35.70;69.60;;;;;;1878708;75;21122;-88
2023/05/23 05:19:47;;;;;;;18.07;14.73;;;35.80;70.10;;;;;;1891995;75;21195;-88
2023/05/23 05:22:33;;;;;;;16.90;13.83;;;35.80;69.50;;;;;;1883304;75;21067;-86
2023/05/23 05:25:09;;;;;;;;;;;35.90;69.70;;;;;;1856614;76;21773;-87
2023/05/23 05:27:49;;;;;;;20.95;15.25;;;36.00;70.50;;;;;;1874257;75;20233;-88
2023/05/23 05:30:21;;;;;;;17.95;14.30;;;36.10;68.60;;;;;;1865722;76;21138;-88
2023/05/23 05:32:56;;;;;;;22.22;14.43;;;36.00;68.20;;;;;;1856502;76;21144;-86
2023/05/23 05:35:33;;;;;;;19.25;13.93;;;35.90;68.60;;;;;;1862268;76;21201;-85
2023/05/23 05:38:11;;;;;;;19.12;14.53;;;36.00;68.40;;;;;;1864274;76;21063;-88
2023/05/23 05:40:42;;;;;;;29.07;14.87;;;36.10;66.70;;;;;;1858842;76;21143;-88
2023/05/23 05:43:23;;;;;;;20.82;14.53;;;36.20;66.80;;;;;;1858389;76;21131;-89
2023/05/23 05:45:56;;;;;;;20.00;14.10;;;36.10;67.90;;;;;;1855633;76;21083;-87
2023/05/23 05:48:28;;;;;;;16.48;14.03;;;36.10;68.60;;;;;;1889091;74;21481;-87
2023/05/23 05:51:01;;;;;;;19.30;14.68;;;36.20;68.80;;;;;;1869230;76;21179;-86
2023/05/23 05:53:35;;;;;;;31.20;15.05;;;36.20;68.10;;;;;;1855314;76;21738;-88
2023/05/23 05:56:08;;;;;;;19.90;13.95;;;36.30;68.50;;;;;;1856319;76;21144;-87
2023/05/23 05:58:40;;;;;;;18.90;14.68;;;36.30;66.60;;;;;;1893521;74;21133;-87
2023/05/23 06:01:12;;;;;;;19.80;14.33;;;36.20;66.10;;;;;;1860521;76;21092;-81
2023/05/23 06:03:44;;;;;;;20.12;14.58;;;36.00;66.50;;;;;;1851194;76;22200;-84
2023/05/23 06:06:15;;;;;;;16.80;13.78;;;35.90;67.20;;;;;;1892431;74;21087;-86
2023/05/23 06:08:47;;;;;;;17.75;14.60;;;35.90;66.90;;;;;;1878888;75;21196;-84
2023/05/23 06:11:19;;;;;;;20.23;14.28;;;35.90;67.60;;;;;;1868066;76;21133;-83
2023/05/23 06:14:09;;;;;;;17.85;13.85;;;36.00;66.80;;;;;;1850983;76;21155;-82
2023/05/23 06:20:11;;;;;;;23.42;13.32;;;35.90;66.30;;;;;;1864394;75;21120;-84
2023/05/23 06:22:43;;;;;;;19.70;14.05;;;35.90;66.90;;;;;;1888993;76;21095;-85
2023/05/23 06:25:35;;;;;;;18.87;13.70;;;36.00;66.40;;;;;;1858312;76;21212;-83
2023/05/23 06:28:34;;;;;;;22.80;14.05;;;35.90;67.40;;;;;;1888146;74;21203;-83
2023/05/23 06:31:27;;;;;;;19.20;13.80;;;36.00;67.30;;;;;;1851278;76;21651;-84
2023/05/23 06:34:22;;;;;;;22.35;15.38;;;36.00;67.10;;;;;;1878029;75;21154;-85
2023/05/23 06:37:22;;;;;;;19.17;13.72;;;36.00;66.30;;;;;;1885261;75;21191;-85
2023/05/23 06:39:53;;;;;;;26.42;15.80;;;36.00;67.10;;;;;;1860249;76;21213;-84
2023/05/23 06:42:29;;;;;;;19.60;13.98;;;36.00;66.80;;;;;;1931992;72;21180;-89
2023/05/23 06:45:19;;;;;;;24.07;15.58;;;36.00;66.90;;;;;;1931758;73;21534;-85
2023/05/23 06:47:59;;;;;;;20.82;14.20;;;35.90;66.10;;;;;;1933614;73;21749;-86
2023/05/23 06:50:37;;;;;;;20.32;13.90;;;35.80;66.70;;;;;;1931143;73;21194;-83
2023/05/23 06:53:12;;;;;;;16.77;13.35;;;35.80;66.90;;;;;;1881025;75;21162;-81
2023/05/23 06:58:40;;;;;;;22.33;14.73;;;35.80;66.70;;;;;;1853032;76;21164;-84
2023/05/23 07:01:15;;;;;;;19.82;14.63;;;35.90;68.00;;;;;;1885271;74;21164;-82
2023/05/23 07:03:47;;;;;;;20.62;15.13;;;35.90;68.90;;;;;;1848553;76;21216;-83
2023/05/23 07:06:19;;;;;;;18.02;14.35;;;35.90;68.20;;;;;;1852548;75;21192;-84
2023/05/23 07:08:50;;;;;;;23.80;15.23;;;36.00;67.70;;;;;;1879766;74;21147;-83
2023/05/23 07:11:38;;;;;;;19.48;14.20;;;36.10;67.50;;;;;;1933820;73;21147;-84
2023/05/23 07:14:09;;;;;;;18.45;15.08;;;36.10;65.90;;;;;;1929485;73;21303;-87
2023/05/23 07:16:46;;;;;;;18.70;13.93;;;36.10;67.30;;;;;;1939599;73;21197;-83
2023/05/23 07:20:21;;;;;;;32.90;16.37;;;36.10;65.90;;;;;;1806267;77;21053;-86
2023/05/23 07:22:36;;;;;;;20.37;13.32;;;36.10;66.30;;;;;;1753858;80;21179;-85
2023/05/23 07:25:36;;;;;;;18.98;13.93;;;36.10;65.20;;;;;;1731039;80;21137;-88
2023/05/23 07:28:26;;;;;;;22.55;14.38;;;36.20;65.30;;;;;;1762117;80;21274;-82
2023/05/23 07:37:26;;;;;;;;;;;;;;;;;;;;;
2023/05/23 07:43:18;;;;;;;15.48;13.88;;;36.10;65.10;;;;;;1533442;92;21229;-80
2023/05/23 07:56:33;;;;;;;18.03;14.37;;;36.10;65.40;;;;;;1929305;73;27704;-82
2023/05/23 07:59:05;;;;;;;16.42;13.25;;;36.20;64.40;;;;;;1926149;73;21886;-82
2023/05/23 08:01:36;;;;;;;19.90;14.20;;;36.20;64.50;;;;;;1920538;73;21137;-85
2023/05/23 08:04:09;;;;;;;21.95;14.55;;;36.20;64.40;;;;;;1919475;73;21198;-88
2023/05/23 08:06:46;;;;;;;17.85;13.45;;;36.20;63.30;;;;;;1919824;73;21542;-85
2023/05/23 08:09:18;;;;;;;21.60;14.93;;;36.30;62.00;;;;;;1923455;73;21108;-83
2023/05/23 08:12:01;;;;;;;19.50;13.40;;;36.20;62.90;;;;;;1925678;73;21128;-82
2023/05/23 08:14:33;;;;;;;23.05;14.05;;;36.20;63.00;;;;;;1920063;73;21163;-80
2023/05/23 08:17:08;;;;;;;16.70;13.70;;;36.20;63.40;;;;;;1921998;74;21189;-82
2023/05/23 08:19:40;;;;;;;14.55;13.05;;;36.20;62.70;;;;;;1922484;73;21151;-84
2023/05/23 08:22:15;;;;;;;19.85;13.88;;;36.20;62.90;;;;;;1917492;73;21109;-82
2023/05/23 08:24:46;;;;;;;17.42;13.32;;;36.20;63.70;;;;;;1916816;73;21917;-82
2023/05/23 08:27:19;;;;;;;25.27;14.25;;;36.20;62.30;;;;;;1918674;74;21155;-83
2023/05/23 08:29:54;;;;;;;17.20;13.03;;;36.10;63.00;;;;;;1919916;73;21697;-81
2023/05/23 08:32:22;;;;;;;15.10;12.03;;;36.20;62.60;;;;;;1914802;73;21132;-82
2023/05/23 08:35:02;;;;;;;15.25;12.45;;;36.10;61.20;;;;;;1917002;73;21159;-82
2023/05/23 08:37:58;;;;;;;17.27;13.78;;;36.10;61.80;;;;;;1921125;73;21205;-81
2023/05/23 08:40:32;;;;;;;16.05;12.33;;;36.00;63.00;;;;;;1921132;73;21175;-80
2023/05/23 08:43:03;;;;;;;19.57;11.25;;;36.00;61.70;;;;;;1918228;73;21508;-81
2023/05/23 08:45:43;;;;;;;15.90;11.73;;;36.00;61.10;;;;;;1918148;73;21128;-81
2023/05/23 08:48:16;;;;;;;14.83;11.35;;;36.00;61.30;;;;;;1913441;73;21532;-83
2023/05/23 08:50:49;;;;;;;21.40;12.23;;;36.00;61.20;;;;;;1937962;73;21237;-82
2023/05/23 08:53:22;;;;;;;44.45;13.08;;;36.00;60.60;;;;;;1923360;73;21060;-82
2023/05/23 08:55:55;;;;;;;53.73;13.08;;;36.00;62.00;;;;;;1928164;73;21461;-83
2023/05/23 08:58:28;;;;;;;17.60;11.53;;;36.10;61.70;;;;;;1933094;73;21154;-80
2023/05/23 09:01:00;;;;;;;13.85;11.53;;;36.10;62.50;;;;;;1928804;73;21077;-81
2023/05/23 09:03:37;;;;;;;17.15;11.60;;;36.10;61.90;;;;;;1933200;73;21643;-83
2023/05/23 09:06:12;;;;;;;17.85;11.75;;;36.10;62.50;;;;;;1923063;73;21611;-83
2023/05/23 09:09:14;;;;;;;17.15;11.90;;;36.10;62.00;;;;;;1867900;75;21914;-83
2023/05/23 09:11:58;;;;;;;26.55;13.08;;;36.10;62.00;;;;;;1923130;73;21171;-80
2023/05/23 09:14:29;;;;;;;17.42;13.18;;;36.10;62.40;;;;;;1922886;73;21160;-81
2023/05/23 09:17:03;;;;;;;21.17;12.33;;;36.10;62.60;;;;;;1926400;73;21623;-79
2023/05/23 09:19:40;;;;;;;15.83;11.73;;;36.10;62.30;;;;;;1929313;73;21179;-81
2023/05/23 09:22:13;;;;;;;13.75;11.38;;;36.10;62.70;;;;;;1925663;73;21645;-82
2023/05/23 09:24:45;;;;;;;16.32;12.58;;;36.10;62.80;;;;;;1934295;73;21107;-82
2023/05/23 09:27:40;;;;;;;26.82;13.05;;;36.00;62.90;;;;;;1923126;73;21091;-85
2023/05/23 09:37:47;;;;;;;29.52;13.40;;;36.00;62.40;;;;;;1614561;86;20243;-83
2023/05/23 09:40:26;;;;;;;17.23;12.40;;;35.90;62.70;;;;;;1659600;80;21683;-82
2023/05/23 09:43:23;;;;;;;17.15;12.37;;;35.90;63.10;;;;;;1779345;79;21170;-82
2023/05/23 09:46:11;;;;;;;17.80;11.18;;;35.90;62.60;;;;;;1776733;79;21163;-81
2023/05/23 09:48:51;;;;;;;23.07;11.60;;;35.80;62.30;;;;;;1772350;80;21263;-82
2023/05/23 09:51:23;;;;;;;15.25;11.55;;;35.80;62.80;;;;;;1758171;79;21151;-81
2023/05/23 09:53:55;;;;;;;18.48;11.97;;;35.70;63.00;;;;;;1769748;79;21239;-84
2023/05/23 09:56:28;;;;;;;16.37;11.10;;;35.70;63.10;;;;;;1775033;80;21103;-79
2023/05/23 09:59:06;;;;;;;23.40;11.80;;;35.70;63.20;;;;;;1776780;80;21213;-85
2023/05/23 10:01:37;;;;;;;18.12;12.40;;;35.60;63.20;;;;;;1780987;79;21752;-84
2023/05/23 10:04:14;;;;;;;30.90;12.25;;;35.60;63.40;;;;;;1791977;80;21256;-82
2023/05/23 10:06:51;;;;;;;22.00;12.45;;;35.70;63.60;;;;;;1802610;78;21158;-81
2023/05/23 10:09:29;;;;;;;18.05;11.95;;;35.60;63.30;;;;;;1785317;79;21138;-82
2023/05/23 10:12:42;;;;;;;22.82;13.60;;;35.70;63.30;;;;;;1922500;73;21131;-87
2023/05/23 10:15:17;;;;;;;23.83;12.28;;;35.60;63.50;;;;;;1934462;73;21768;-83
2023/05/23 10:18:06;;;;;;;17.05;11.18;;;35.60;62.90;;;;;;1934446;73;21183;-85
2023/05/23 10:20:42;;;;;;;16.97;11.97;;;35.60;63.50;;;;;;1949074;73;21132;-82
2023/05/23 10:23:14;;;;;;;15.43;11.30;;;35.60;62.90;;;;;;1933041;73;21096;-84
2023/05/23 10:25:51;;;;;;;14.00;10.88;;;35.60;62.40;;;;;;1930846;73;21120;-84
2023/05/23 10:28:23;;;;;;;13.68;10.50;;;35.60;62.50;;;;;;1896057;75;21180;-87
2023/05/23 10:30:55;;;;;;;14.43;10.63;;;35.50;62.70;;;;;;1887272;75;21949;-85
2023/05/23 10:33:33;;;;;;;17.05;11.73;;;35.50;62.60;;;;;;1922194;73;21614;-86
2023/05/23 10:36:07;;;;;;;24.02;13.55;;;35.50;63.30;;;;;;1931360;73;21288;-81
2023/05/23 10:38:53;;;;;;;20.08;12.40;;;35.50;63.70;;;;;;1925632;73;21127;-85
2023/05/23 10:44:43;;;;;;;21.25;12.37;;;35.50;64.10;;;;;;1902874;73;21804;-85
2023/05/23 10:47:17;;;;;;;25.77;15.10;;;35.50;63.50;;;;;;1940779;73;21245;-86
2023/05/23 10:49:57;;;;;;;14.90;11.88;;;35.50;63.80;;;;;;1917785;73;21139;-86
2023/05/23 10:52:26;;;;;;;19.48;12.07;;;35.40;64.20;;;;;;1927198;73;21115;-86
2023/05/23 10:54:58;;;;;;;16.32;11.43;;;35.30;64.90;;;;;;1924788;73;21601;-86
2023/05/23 10:57:30;;;;;;;25.10;11.25;;;35.20;65.10;;;;;;1909705;74;21541;-86
2023/05/23 11:00:02;;;;;;;14.83;10.70;;;35.20;64.40;;;;;;1914531;74;21199;-87
2023/05/23 11:02:34;;;;;;;13.35;10.23;;;35.10;64.30;;;;;;1912875;74;21588;-87
2023/05/23 11:05:23;;;;;;;17.30;11.33;;;35.00;64.50;;;;;;1914331;74;21163;-86
2023/05/23 11:08:41;;;;;;;;;;;;;;;;;;;;;
2023/05/23 11:11:09;;;;;;;54.58;15.18;;;34.70;67.70;;;;;;1912615;74;21136;-85
2023/05/23 11:13:59;;;;;;;43.00;13.13;;;34.50;68.80;;;;;;1901665;74;21156;-85
2023/05/23 11:16:32;;;;;;;48.55;15.85;;;34.30;69.30;;;;;;1907770;74;21053;-86
2023/05/23 11:19:24;;;;;;;18.60;14.15;;;34.10;70.20;;;;;;1909629;74;21146;-88
2023/05/23 11:22:00;;;;;;;32.38;13.15;;;34.00;71.10;;;;;;1903662;75;21066;-84
2023/05/23 11:24:52;;;;;;;28.92;12.35;;;33.80;71.80;;;;;;1908051;74;21137;-85
2023/05/23 11:27:40;;;;;;;25.30;12.18;;;33.70;71.70;;;;;;1905507;74;21192;-85
2023/05/23 11:30:16;;;;;;;18.23;11.50;;;33.50;72.40;;;;;;1900419;74;21104;-85
2023/05/23 11:32:54;;;;;;;20.45;10.65;;;33.40;72.80;;;;;;1904747;74;21588;-87
2023/05/23 11:35:26;;;;;;;20.15;11.35;;;33.30;72.60;;;;;;1905263;74;21123;-87
2023/05/23 11:37:58;;;;;;;13.30;9.98;;;33.20;72.90;;;;;;1908862;74;21081;-86
2023/05/23 11:40:32;;;;;;;12.05;9.60;;;33.00;73.10;;;;;;1912461;74;22315;-85
2023/05/23 11:43:06;;;;;;;27.55;11.35;;;33.00;73.30;;;;;;1880969;75;21596;-85
2023/05/23 11:45:38;;;;;;;16.30;10.45;;;32.90;73.80;;;;;;1930874;73;21096;-86
2023/05/23 11:48:11;;;;;;;14.68;10.58;;;32.90;74.50;;;;;;1911186;74;21157;-85
2023/05/23 11:50:53;;;;;;;19.77;11.50;;;32.80;75.00;;;;;;1868323;76;21124;-85
2023/05/23 11:53:26;;;;;;;25.82;11.78;;;32.70;75.50;;;;;;1920521;73;21233;-84
2023/05/23 11:55:59;;;;;;;18.67;11.30;;;32.70;75.60;;;;;;1911708;74;21604;-86
2023/05/23 11:58:35;;;;;;;15.98;11.40;;;32.60;77.00;;;;;;1909107;74;21229;-84
2023/05/23 12:01:06;;;;;;;;;;;32.50;76.50;;;;;;1905672;74;21160;-85
2023/05/23 12:03:48;;;;;;;48.17;12.90;;;32.50;75.90;;;;;;1904325;74;20117;-85
2023/05/23 12:06:22;;;;;;;32.93;10.18;;;32.40;75.50;;;;;;1902455;74;21144;-84
2023/05/23 12:08:53;;;;;;;16.90;7.30;;;32.30;75.50;;;;;;1917190;74;21065;-86
2023/05/23 12:11:25;;;;;;;14.55;7.42;;;32.10;74.40;;;;;;1910354;74;21135;-84
2023/05/23 12:13:58;;;;;;;18.60;9.20;;;31.90;74.50;;;;;;1907779;74;21118;-86
2023/05/23 12:16:30;;;;;;;19.57;9.33;;;31.70;77.60;;;;;;1871354;75;21671;-85
2023/05/23 12:19:03;;;;;;;20.50;11.05;;;31.60;77.90;;;;;;1922408;73;21121;-85
2023/05/23 12:21:45;;;;;;;14.13;11.38;;;31.40;80.00;;;;;;1910886;74;21261;-85
2023/05/23 12:24:26;;;;;;;18.55;10.20;;;31.30;81.40;;;;;;1914205;74;21682;-85
2023/05/23 12:27:33;;;;;;;15.38;10.72;;;31.20;80.30;;;;;;1913949;73;21258;-85
2023/05/23 12:30:15;;;;;;;19.52;13.43;;;31.10;83.30;;;;;;1856771;76;21231;-86
2023/05/23 12:32:46;;;;;;;13.43;10.23;;;31.00;84.50;;;;;;1856250;76;21655;-85
2023/05/23 12:35:18;;;;;;;13.88;9.80;;;31.00;83.50;;;;;;1886011;74;21308;-84
2023/05/23 12:37:49;;;;;;;13.22;10.48;;;30.90;85.00;;;;;;1914622;74;21175;-85
2023/05/23 12:40:21;;;;;;;15.63;10.58;;;30.80;85.40;;;;;;1905928;74;21211;-85
2023/05/23 12:42:53;;;;;;;17.00;11.22;;;30.70;85.40;;;;;;1910569;74;21058;-85
2023/05/23 12:45:37;;;;;;;17.57;12.05;;;30.70;86.00;;;;;;1918159;74;21041;-85
2023/05/23 12:48:08;;;;;;;16.80;11.38;;;30.70;85.50;;;;;;1878771;75;21587;-85
2023/05/23 12:50:43;;;;;;;15.15;11.78;;;30.70;86.40;;;;;;1928726;73;21123;-86
2023/05/23 12:53:14;;;;;;;18.27;12.78;;;30.70;87.20;;;;;;1916044;74;21097;-86
2023/05/23 12:55:46;;;;;;;13.88;11.93;;;30.70;86.70;;;;;;1906539;74;21816;-86
2023/05/23 12:58:17;;;;;;;16.05;11.95;;;30.70;87.20;;;;;;1905933;74;21180;-84
2023/05/23 13:00:54;;;;;;;16.95;12.10;;;30.70;87.00;;;;;;1920500;74;21225;-87
2023/05/23 13:03:26;;;;;;;14.93;11.45;;;30.70;87.30;;;;;;1919437;74;21167;-85
2023/05/23 13:06:15;;;;;;;17.05;12.00;;;30.70;87.60;;;;;;1915633;74;21931;-84
2023/05/23 13:08:53;;;;;;;15.75;11.05;;;30.70;86.60;;;;;;1915879;73;21151;-87
2023/05/23 13:11:19;;;;;;;14.03;9.78;;;30.70;86.80;;;;;;1914083;74;21203;-84
2023/05/23 13:13:51;;;;;;;11.60;9.10;;;30.60;86.10;;;;;;1922773;74;21137;-86
2023/05/23 13:16:22;;;;;;;11.88;9.68;;;30.60;86.60;;;;;;1915833;74;21160;-86
2023/05/23 13:18:54;;;;;;;11.95;8.85;;;30.60;86.50;;;;;;1917447;74;21112;-86
2023/05/23 13:21:27;;;;;;;10.25;8.10;;;30.60;86.20;;;;;;1926776;74;21188;-86
2023/05/23 13:23:58;;;;;;;14.75;8.60;;;30.60;86.50;;;;;;1873923;76;21109;-87
2023/05/23 13:26:29;;;;;;;13.60;8.20;;;30.50;86.70;;;;;;1841550;76;21217;-86
2023/05/23 13:29:00;;;;;;;12.33;8.35;;;30.50;87.90;;;;;;1869318;76;21511;-85
2023/05/23 13:31:32;;;;;;;13.38;9.00;;;30.40;86.50;;;;;;1869165;76;21155;-86
2023/05/23 13:34:03;;;;;;;9.75;8.08;;;30.40;86.80;;;;;;1850576;76;21801;-87
2023/05/23 13:36:35;;;;;;;11.30;7.92;;;30.40;87.10;;;;;;1871128;76;21108;-86
2023/05/23 13:39:07;;;;;;;10.58;7.97;;;30.40;86.90;;;;;;1865003;76;21084;-85
2023/05/23 13:41:49;;;;;;;14.93;9.58;;;30.40;87.50;;;;;;1842669;77;21197;-84
2023/05/23 13:44:26;;;;;;;10.90;9.30;;;30.40;87.50;;;;;;1834262;77;21710;-86
2023/05/23 13:47:13;;;;;;;10.08;8.03;;;30.40;87.90;;;;;;1843504;77;21185;-87
2023/05/23 13:49:45;;;;;;;12.33;8.83;;;30.40;87.50;;;;;;1845726;76;21716;-84
2023/05/23 13:52:16;;;;;;;12.73;8.63;;;30.40;88.00;;;;;;1849101;76;21213;-85
2023/05/23 13:54:47;;;;;;;12.40;8.88;;;30.30;87.50;;;;;;1869369;76;21140;-85
2023/05/23 13:57:19;;;;;;;12.33;7.60;;;30.40;87.60;;;;;;1868041;76;21069;-85
2023/05/23 13:59:54;;;;;;;12.93;7.65;;;30.30;87.70;;;;;;1821095;77;21146;-84
2023/05/23 14:02:26;;;;;;;12.33;7.95;;;30.30;87.30;;;;;;1919377;74;21143;-85
2023/05/23 14:04:57;;;;;;;11.63;8.35;;;30.30;87.60;;;;;;1918533;74;21116;-84
2023/05/23 14:07:29;;;;;;;10.78;7.47;;;30.30;87.70;;;;;;1919908;74;21505;-84
2023/05/23 14:10:08;;;;;;;12.25;7.72;;;30.30;87.60;;;;;;1924022;74;21148;-85
2023/05/23 14:12:38;;;;;;;9.13;7.25;;;30.30;87.90;;;;;;1924680;74;21227;-84
2023/05/23 14:15:10;;;;;;;8.78;7.10;;;30.20;87.40;;;;;;1941630;74;21112;-84
2023/05/23 14:17:42;;;;;;;10.55;7.67;;;30.20;87.40;;;;;;1918998;74;21143;-84
2023/05/23 14:20:17;;;;;;;9.70;6.97;;;30.10;87.40;;;;;;1929170;74;21104;-84
2023/05/23 14:22:48;;;;;;;9.53;7.37;;;30.10;87.20;;;;;;1927804;74;21204;-85
2023/05/23 14:25:20;;;;;;;10.03;7.20;;;30.10;86.90;;;;;;1927216;74;21115;-85
2023/05/23 14:27:51;;;;;;;10.78;7.25;;;30.10;87.10;;;;;;1921285;74;21535;-85
2023/05/23 14:30:22;;;;;;;10.10;6.47;;;30.10;87.50;;;;;;1933166;74;21107;-86
2023/05/23 14:32:54;;;;;;;8.10;6.78;;;30.10;87.60;;;;;;1929501;74;21202;-86
2023/05/23 14:35:28;;;;;;;8.55;6.40;;;30.10;87.40;;;;;;1925403;74;21167;-85
2023/05/23 14:38:02;;;;;;;9.13;7.33;;;30.10;87.90;;;;;;1924157;74;21213;-85
2023/05/23 14:40:33;;;;;;;6.90;5.80;;;30.10;88.00;;;;;;1904142;75;21626;-86
2023/05/23 14:43:04;;;;;;;7.53;6.12;;;30.00;87.60;;;;;;1932481;74;21151;-86
2023/05/23 14:45:35;;;;;;;9.18;5.53;;;30.00;87.50;;;;;;1926254;74;22349;-87
2023/05/23 14:48:07;;;;;;;8.70;6.42;;;30.10;88.00;;;;;;1922530;73;21085;-86
2023/05/23 14:50:38;;;;;;;7.35;6.20;;;30.10;88.30;;;;;;1924871;74;21116;-85
2023/05/23 14:53:11;;;;;;;8.18;5.95;;;30.20;88.30;;;;;;1923835;73;21102;-88